ASN logo
ASN Wikibase Occurrence # 221137
Last updated: 24 September 2020
This information is added by users of ASN. Neither ASN nor the Flight Safety Foundation are responsible for the completeness or correctness of this information. If you feel this information is incomplete or incorrect, you can submit corrected information.

Date:26-JAN-2019
Time:c. 11:00 LT
Type:Silhouette image of generic B38M model; specific model in this crash may look slightly different
Boeing 737 MAX 8
Owner/operator:Corendon Airlines
Registration: TC-MKS
C/n / msn: 64936/6931
Fatalities:Fatalities: 0 / Occupants: 0
Other fatalities:0
Aircraft damage: Unknown
Location:Antalya Airport (AYT/LTAI) -   Turkey
Phase: Standing
Nature:-
Departure airport:-
Destination airport:-
Narrative:
A thunderstorm with strong winds and a tornado caused several injuries as well as damage to aircraft, vehicles and airport equipment at Antalya Airport, Turkey.
A bus was blown over, coming to rest against the no. 1 engine inlet cowling of a Corendon Boeing 737 MAX 8 (TC-MKS).
An Onur Air Airbus A321 (TC-OEB) suffered serious impact damage to the nose cone and right hand forward fuselage.


Weather about the time of the incident (c. 11:00-12:00 LT / 0800Z-0900Z):
LTAI 260950Z 18022G35KT 2000 R36C/1000N R18C/1000N R36R/1000N R18L/0400U -TSRA BLDU SCT015CB BKN025 13/08 Q1004 WS ALL RWY NOSIG
LTAI 260920Z 17020G30KT 2000 R36C/1000N R18C/1000N R36R/1000N R18L/0450D -TSRA BLDU SCT015CB BKN025 09/06 Q1005 RETSRA NOSIG RMK RWY18C 16018KT RWY36R 17019KT RWY18L 16020KT
LTAI 260850Z 18013KT 140V220 1600 R36C/P1500U R18C/1500N R36R/1500N R18L/0600U +TSRA BLDU SCT015CB BKN025 13/11 Q1005 BECMG 15025G40KT NSW
LTAI 260831Z 21026KT 1600 R36C/P1500U R18C/1500N R36R/1500N R18L/0600N -TSRA BLDU SCT015CB BKN025 12/07 Q1005 RETSRA NOSIG RMK RWY18C 20028G38KT RWY36R 19017G27KT 160V220 RWY18L 20025KT
LTAI 260820Z 19028G39KT 1600 R36C/1000D R18C/1000N R36R/1000N R18L/0700U +TSRA BLDU SCT015CB BKN025 11/07 Q1005 BECMG NSW
LTAI 260750Z 16028G45KT 1600 R36C/1100D R18C/1200N R36R/1200D R18L/1100U -TSRA BLDU SCT015CB BKN025 15/09 Q1004 NOSIG RMK RWY18C 15030G48KT RWY36R 16027G40KT RWY18L 16027G39KT
LTAI 260720Z 15024G35KT 1600 R36C/0750D R18C/1500D R36R/1100D R18L/1100U -TSRA BLDU SCT015CB BKN025 15/10 Q1003 RETSRA NOSIG

Sources:

Video and photos:
http://www.goklerdeyiz.net/antalya-havalimaninda-ucaklar-hasar-aldi/
http://www.goklerdeyiz.net/video-antalya-havalimaninda-otobus-devrildi/
http://www.hurriyet.com.tr/haberleri/antalya-havalimani

View this post on Instagram

⚠️⚠️⚠️⚠️SON DAKIKA ⚠️⚠️⚠️Malesef Yağan şiddetli yağmur ve doluyla beraber çıkan şiddetli hortum antalya merkezde olduğu gibi havalimanında apronda ucaklara maddi hasar verdi. Yolcu cobusları devrildi. Elektrik direkleri devrildi. Park halindeki uçaklar yan döndü. Herkese cok geçmiş olsun... ➖Antalya Havalimanı | Antalya Airport ⚠️🇹🇷#airbuslover#airbus#boeing#boeinglovers#plane#airplane#aviatör#aviation#fly#sky#aircraft#spotter#antalya#ayt#airlines#instalike#instapic#instagood#international#airbuslove#boeinglove#antalyaairport#antalyaspotterr#ayt#plane#sunexpress 🔥🔥🔥🔥🔥🔥🔥🔥 @aviationeverywhere @tr_spotter @aviation4u @peroaviation @future_aviators @aviapics4u @aviationdaily @instagramaviation @aviationsworld @combat_learjet @megaplane @megaplanetv @avgeek18 @aviati0n1 @eu_spotters @airbuslovers @boeinglovers @worldofspotters @ayt_airport @adem_eve @istanbulspotterr @spotterboeing @cancemalist @havacilikkulubu.tr @havadakalmissorular @herkesicinhavacilik @igaspotter @ucakyolcusutr @hostesbeyoglumtr @spotting_07 @yilmazmuh

A post shared by Antalya Airport✈️ (@antalyaspotterr) on


Images:

Photo of TC-MKS courtesy AirHistory.net


Groningen - Eelde (EHGG / GRQ)
24 May 2018; (c) Kas van Zonneveld

Revision history:

Date/timeContributorUpdates
26-Jan-2019 10:09 Goklerdeyiz.net Added
26-Jan-2019 10:10 harro Updated [Aircraft type, Cn, Total fatalities, Other fatalities, Location, Nature, Departure airport, Destination airport, Damage]
26-Jan-2019 10:27 harro Updated [Time, Embed code, Narrative]
26-Jan-2019 11:29 RobertMB Updated [Source, Embed code]

Corrections or additions? ... Edit this accident description